EDT,Max TemperatureF,Mean TemperatureF,Min TemperatureF,Max Dew PointF,MeanDew PointF,Min DewpointF,Max Humidity, Mean Humidity, Min Humidity, Max Sea Level PressureIn, Mean Sea Level PressureIn, Min Sea Level PressureIn, Max VisibilityMiles, Mean VisibilityMiles, Min VisibilityMiles, Max Wind SpeedMPH, Mean Wind SpeedMPH, Max Gust SpeedMPH,PrecipitationIn, CloudCover, Events, WindDirDegrees
2012-10-1,77,72,68,73,72,68,100,96,89,29.87,29.74,29.68,10.0,9.1,5.0,12,5,17,0.00,7,Rain,164
2012-10-2,77,72,66,72,65,61,100,82,57,30.03,29.86,29.72,10.0,9.7,2.5,13,6,18,0.00,5,Rain,243
2012-10-3,73,68,62,68,64,61,100,88,69,30.23,30.13,30.03,10.0,9.6,5.0,6,1,,0.00,3,,116
2012-10-4,82,71,60,66,64,61,100,83,48,30.29,30.23,30.18,10.0,8.1,1.0,7,1,,0.00,2,,41
2012-10-5,77,70,62,68,64,61,100,90,61,30.23,30.14,30.05,10.0,5.7,0.2,7,1,,0.00,5,Fog,82
2012-10-6,86,75,64,70,64,57,100,77,37,30.06,30.01,29.93,10.0,8.8,4.0,8,1,,0.00,3,,322
2012-10-7,80,70,60,64,61,54,100,79,51,30.08,30.02,29.99,10.0,8.9,1.2,12,4,23,0.00,1,,349
2012-10-8,77,65,53,61,56,50,94,79,54,30.13,30.07,30.02,10.0,8.6,0.5,10,5,,0.00,4,,28
2012-10-9,71,62,53,59,56,52,100,85,57,30.17,30.12,30.07,10.0,9.1,5.0,9,5,,0.00,5,,91
2012-10-10,78,64,51,61,57,52,100,83,44,30.20,30.14,30.10,10.0,6.3,0.2,12,2,17,0.00,4,Fog,307
2012-10-11,78,64,51,61,56,52,100,79,42,30.30,30.23,30.18,10.0,8.6,4.0,7,1,,0.00,0,,38
2012-10-12,82,68,53,63,59,54,100,75,48,30.29,30.24,30.19,10.0,8.8,4.0,12,2,16,0.00,1,,347
2012-10-13,80,70,59,63,58,52,100,71,37,30.34,30.27,30.23,10.0,9.5,4.0,13,6,17,0.00,0,,80
2012-10-14,80,68,57,66,62,57,100,78,51,30.26,30.16,30.05,10.0,9.7,4.0,10,5,,0.00,1,,140
2012-10-15,80,71,62,70,62,50,100,77,41,30.05,29.96,29.87,10.0,8.6,1.8,17,5,23,0.00,3,Rain-Thunderstorm,281
2012-10-16,71,58,46,54,47,41,100,67,33,30.01,29.96,29.90,10.0,10.0,10.0,12,3,16,0.00,0,,26
2012-10-17,77,65,53,54,50,45,100,68,32,29.99,29.92,29.85,10.0,10.0,7.0,12,2,16,0.00,0,,156
2012-10-18,77,65,53,66,60,52,100,87,61,29.88,29.85,29.82,10.0,9.3,5.0,12,4,16,0.00,3,Rain,209
2012-10-19,77,62,46,61,42,32,100,54,21,29.93,29.87,29.81,10.0,10.0,10.0,16,4,20,0.00,0,,271
2012-10-20,71,58,44,46,43,41,93,62,33,30.01,29.94,29.89,10.0,10.0,10.0,15,3,21,0.00,0,,295
2012-10-21,77,60,44,50,46,43,100,67,32,30.16,30.10,30.01,10.0,10.0,10.0,10,2,,0.00,0,,29
2012-10-22,80,62,44,54,48,45,100,65,28,30.24,30.18,30.12,10.0,10.0,10.0,10,3,,0.00,0,,77
2012-10-23,80,62,44,59,52,45,100,69,39,30.21,30.15,30.09,10.0,9.9,7.0,7,2,,0.00,0,,100
2012-10-24,80,66,51,63,56,52,100,75,39,30.20,30.12,30.06,10.0,9.3,5.0,10,3,10,0.00,1,,62
2012-10-25,82,68,53,64,58,54,100,74,42,30.10,30.04,29.99,10.0,9.4,5.0,10,5,18,0.00,2,,72
2012-10-26,82,70,59,64,58,50,100,74,34,30.04,29.96,29.89,10.0,8.9,3.0,17,6,21,0.00,1,,34
2012-10-27,77,66,55,59,56,50,88,73,50,29.90,29.82,29.74,10.0,9.8,3.0,15,8,21,0.00,0,,352
2012-10-28,59,54,50,50,46,36,88,73,58,29.89,29.83,29.79,10.0,10.0,10.0,23,9,30,0.00,5,,321
2012-10-29,60,52,44,36,32,27,71,51,27,29.92,29.87,29.80,10.0,10.0,10.0,21,12,30,0.00,0,,325
2012-10-30,60,48,37,30,26,19,75,43,20,29.91,29.82,29.77,10.0,10.0,10.0,23,13,33,0.00,0,,292
2012-10-31,69,56,42,45,36,30,67,49,28,29.99,29.93,29.88,10.0,10.0,10.0,23,9,31,0.00,0,,279